Quantum Of The Seas — C6BH8 — position and weather

sailwx.info

Track history (hours):
 
Tides and Currents Weather Stations Pressure Air Temp Water Temp Dewpoint Dewpoint Depression Visibility Wind Speed Wind Dir Waves Ship Positions

Quantum Of The Seas

Last reported at 2018-Nov-08 12:12 UTC. Time now 2018-Nov-13 07:51 UTC.
Position N 31°07' E 122°18'.

Length 348 m; draft 9 m.

Type: Passenger vessel. MMSI: 311000267.

Date/timePositionNaut miles runAvg speedWind from/ knotsBaromVisibWave heightAir tempDewpointWater temp
2018-Nov-08 12:12N 31°07' E 122°18'213.9
2018-Nov-08 12:02N 31°08' E 122°15'813.0
2018-Nov-08 11:26N 31°12' E 122°08'614.5
2018-Nov-08 11:02N 31°14' E 122°02'714.8
2018-Nov-08 10:32N 31°16' E 121°53'0 0.0
2018-Nov-07 20:30N 31°16' E 121°53'710.8
2018-Nov-07 19:50N 31°15' E 122°01'1410.6
2018-Nov-07 18:33N 31°08' E 122°15'311.8
2018-Nov-07 18:20N 31°07' E 122°18'  
2018-Nov-03 14:41N 31°09' E 122°14'1014.0
2018-Nov-03 14:00N 31°14' E 122°05'712.6
2018-Nov-03 13:26N 31°15' E 121°57'811.6
2018-Nov-03 12:44N 31°18' E 121°47'5 0.3
2018-Nov-02 19:35N 31°16' E 121°53'114.8
2018-Nov-02 19:30N 31°16' E 121°54'614.2
2018-Nov-02 19:03N 31°15' E 122°02'314.5
2018-Nov-02 18:49N 31°14' E 122°05'614.7
2018-Nov-02 18:26N 31°11' E 122°11'514.8
2018-Nov-02 18:03N 31°07' E 122°16'114.5
2018-Nov-02 17:57N 31°07' E 122°18'  
Track history (hours):
 
Tides and Currents Weather Stations Pressure Air Temp Water Temp Dewpoint Dewpoint Depression Visibility Wind Speed Wind Dir Waves Ship Positions

Quantum Of The Seas

Last reported at 2018-Nov-08 12:12 UTC. Time now 2018-Nov-13 07:51 UTC.
Position N 31°07' E 122°18'.

Length 348 m; draft 9 m.

Type: Passenger vessel. MMSI: 311000267.

Date/timePositionNaut miles runAvg speedWind from/ knotsBaromVisibWave heightAir tempDewpointWater temp
2018-Nov-08 12:12N 31°07' E 122°18'213.9
2018-Nov-08 12:02N 31°08' E 122°15'813.0
2018-Nov-08 11:26N 31°12' E 122°08'614.5
2018-Nov-08 11:02N 31°14' E 122°02'714.8
2018-Nov-08 10:32N 31°16' E 121°53'0 0.0
2018-Nov-07 20:30N 31°16' E 121°53'710.8
2018-Nov-07 19:50N 31°15' E 122°01'1410.6
2018-Nov-07 18:33N 31°08' E 122°15'311.8
2018-Nov-07 18:20N 31°07' E 122°18'  
2018-Nov-03 14:41N 31°09' E 122°14'1014.0
2018-Nov-03 14:00N 31°14' E 122°05'712.6
2018-Nov-03 13:26N 31°15' E 121°57'811.6
2018-Nov-03 12:44N 31°18' E 121°47'5 0.3
2018-Nov-02 19:35N 31°16' E 121°53'114.8
2018-Nov-02 19:30N 31°16' E 121°54'614.2
2018-Nov-02 19:03N 31°15' E 122°02'314.5
2018-Nov-02 18:49N 31°14' E 122°05'614.7
2018-Nov-02 18:26N 31°11' E 122°11'514.8
2018-Nov-02 18:03N 31°07' E 122°16'114.5
2018-Nov-02 17:57N 31°07' E 122°18'  

Dump ship's entire track history